createdAt,value
2018-12-24T00:00:30.675Z,95.70
2018-12-24T00:03:03.137Z,95.70
2018-12-24T00:05:33.603Z,95.80
2018-12-24T00:08:04.053Z,95.90
2018-12-24T00:10:34.529Z,95.70
2018-12-24T00:13:05.074Z,95.70
2018-12-24T00:15:37.115Z,95.80
2018-12-24T00:18:07.856Z,95.70
2018-12-24T00:20:38.394Z,95.70
2018-12-24T00:23:09.099Z,95.70
2018-12-24T00:25:41.103Z,95.60
2018-12-24T00:28:11.708Z,95.50
2018-12-24T00:30:42.285Z,95.30
2018-12-24T00:33:12.731Z,94.70
2018-12-24T00:35:43.232Z,94.90
2018-12-24T00:38:13.883Z,94.60
2018-12-24T00:40:44.265Z,94.60
2018-12-24T00:43:14.744Z,94.70
2018-12-24T00:45:45.291Z,95.10
2018-12-24T00:48:15.779Z,95.00
2018-12-24T00:50:46.352Z,95.00
2018-12-24T00:53:16.791Z,94.80
2018-12-24T00:55:47.329Z,94.40
2018-12-24T00:58:17.948Z,94.50
2018-12-24T01:00:50.463Z,94.30
2018-12-24T01:03:21.173Z,94.80
2018-12-24T01:05:51.723Z,94.80
2018-12-24T01:08:22.203Z,94.90
2018-12-24T01:10:52.882Z,94.50
2018-12-24T01:13:23.635Z,94.70
2018-12-24T01:15:54.336Z,94.50
2018-12-24T01:18:24.834Z,93.90
2018-12-24T01:20:55.382Z,93.80
2018-12-24T01:23:25.902Z,93.80
2018-12-24T01:25:56.463Z,94.00
2018-12-24T01:28:26.922Z,94.00
2018-12-24T01:30:57.503Z,93.80
2018-12-24T01:33:27.896Z,93.50
2018-12-24T01:35:58.574Z,93.80
2018-12-24T01:38:29.280Z,94.00
2018-12-24T01:41:01.142Z,94.00
2018-12-24T01:43:32.102Z,94.00
2018-12-24T01:46:02.674Z,93.60
2018-12-24T01:48:33.192Z,93.80
2018-12-24T01:51:03.768Z,93.80
2018-12-24T01:53:34.408Z,93.80
2018-12-24T01:56:05.244Z,93.90
2018-12-24T01:58:35.791Z,93.80
2018-12-24T02:01:06.615Z,93.90
2018-12-24T02:03:38.054Z,94.10
2018-12-24T02:06:08.675Z,93.90
2018-12-24T02:08:39.080Z,93.70
2018-12-24T02:11:09.554Z,93.80
2018-12-24T02:13:40.274Z,93.50
2018-12-24T02:16:10.933Z,93.40
2018-12-24T02:18:41.313Z,93.40
2018-12-24T02:21:11.899Z,93.70
2018-12-24T02:23:42.522Z,93.60
2018-12-24T02:26:12.982Z,93.80
2018-12-24T02:28:43.462Z,93.90
2018-12-24T02:31:13.923Z,94.00
2018-12-24T02:33:44.601Z,93.90
2018-12-24T02:36:15.233Z,94.00
2018-12-24T02:38:45.809Z,93.80
2018-12-24T02:41:16.507Z,93.80
2018-12-24T02:43:46.947Z,93.80
2018-12-24T02:46:17.594Z,93.70
2018-12-24T02:48:48.030Z,93.50
2018-12-24T02:51:18.548Z,93.50
2018-12-24T02:53:49.155Z,93.50
2018-12-24T02:56:19.830Z,93.70
2018-12-24T02:58:50.382Z,93.80
2018-12-24T03:01:20.766Z,93.80
2018-12-24T03:03:51.190Z,93.90
2018-12-24T03:06:21.804Z,93.70
2018-12-24T03:08:52.228Z,93.70
2018-12-24T03:11:22.823Z,93.90
2018-12-24T03:13:53.197Z,93.70
2018-12-24T03:16:25.143Z,94.10
2018-12-24T03:18:55.842Z,93.80
2018-12-24T03:21:26.215Z,93.80
2018-12-24T03:23:57.296Z,93.90
2018-12-24T03:26:28.002Z,93.50
2018-12-24T03:28:58.622Z,93.60
2018-12-24T03:31:29.205Z,93.50
2018-12-24T03:33:59.637Z,93.40
2018-12-24T03:36:30.156Z,93.40
2018-12-24T03:39:00.490Z,93.40
2018-12-24T03:41:32.461Z,93.30
2018-12-24T03:44:03.056Z,93.20
2018-12-24T03:46:33.555Z,93.10
2018-12-24T03:49:05.035Z,93.30
2018-12-24T03:51:35.598Z,93.20
2018-12-24T03:54:06.197Z,93.30
2018-12-24T03:56:36.604Z,93.20
2018-12-24T03:59:07.098Z,93.00
2018-12-24T04:01:37.619Z,93.00
2018-12-24T04:04:08.054Z,93.00
2018-12-24T04:06:38.772Z,93.00
2018-12-24T04:09:09.146Z,93.10
2018-12-24T04:11:39.530Z,92.90
2018-12-24T04:14:10.020Z,92.70
2018-12-24T04:16:40.457Z,92.90
2018-12-24T04:19:10.869Z,92.90
2018-12-24T04:21:41.337Z,92.90
2018-12-24T04:24:11.687Z,92.60
2018-12-24T04:26:42.187Z,93.10
2018-12-24T04:29:12.550Z,92.80
2018-12-24T04:31:43.380Z,92.90
2018-12-24T04:34:13.794Z,92.90
2018-12-24T04:36:45.259Z,93.10
2018-12-24T04:39:15.675Z,93.20
2018-12-24T04:41:53.239Z,93.10
2018-12-24T04:44:23.549Z,93.10
2018-12-24T04:46:53.947Z,93.10
2018-12-24T04:49:24.426Z,93.20
2018-12-24T04:51:54.868Z,93.10
2018-12-24T04:54:25.582Z,93.10
2018-12-24T04:56:55.952Z,93.30
2018-12-24T04:59:26.314Z,93.10
2018-12-24T05:01:56.732Z,93.20
2018-12-24T05:04:27.190Z,93.20
2018-12-24T05:06:57.907Z,93.20
2018-12-24T05:09:28.289Z,93.20
2018-12-24T05:11:58.626Z,93.20
2018-12-24T05:14:29.195Z,93.10
2018-12-24T05:16:59.524Z,93.10
2018-12-24T05:19:29.928Z,93.00
2018-12-24T05:22:00.369Z,93.20
2018-12-24T05:24:30.782Z,93.30
2018-12-24T05:27:01.309Z,93.30
2018-12-24T05:29:31.684Z,93.30
2018-12-24T05:32:02.070Z,93.20
2018-12-24T05:34:32.460Z,93.20
2018-12-24T05:37:02.901Z,93.30
2018-12-24T05:39:33.460Z,93.40
2018-12-24T05:42:03.858Z,93.40
2018-12-24T05:44:34.229Z,93.50
2018-12-24T05:47:04.719Z,93.70
2018-12-24T05:49:35.179Z,93.90
2018-12-24T05:52:05.634Z,93.80
2018-12-24T05:54:36.072Z,94.00
2018-12-24T05:57:06.545Z,94.10
2018-12-24T05:59:38.221Z,94.20
2018-12-24T06:02:08.605Z,94.30
2018-12-24T06:04:38.992Z,94.50
2018-12-24T06:07:09.364Z,94.60
2018-12-24T06:09:41.235Z,94.70
2018-12-24T06:12:11.675Z,94.90
2018-12-24T06:14:42.121Z,95.00
2018-12-24T06:17:12.472Z,94.90
2018-12-24T06:19:42.857Z,95.00
2018-12-24T06:22:13.373Z,95.00
2018-12-24T06:24:43.727Z,95.20
2018-12-24T06:27:14.107Z,95.10
2018-12-24T06:29:44.732Z,95.20
2018-12-24T06:32:15.388Z,95.20
2018-12-24T06:34:47.429Z,95.20
2018-12-24T06:37:17.923Z,95.30
2018-12-24T06:39:48.482Z,95.30
2018-12-24T06:42:18.847Z,95.40
2018-12-24T06:44:49.351Z,95.40
2018-12-24T06:47:19.847Z,95.50
2018-12-24T06:49:51.631Z,95.40
2018-12-24T06:52:22.102Z,95.50
2018-12-24T06:54:52.475Z,95.50
2018-12-24T06:57:23.062Z,95.40
2018-12-24T06:59:53.882Z,95.40
2018-12-24T07:02:24.458Z,95.40
2018-12-24T07:04:55.162Z,95.50
2018-12-24T07:07:25.763Z,95.50
2018-12-24T07:09:56.401Z,95.60
2018-12-24T07:12:26.881Z,95.70
2018-12-24T07:14:57.442Z,95.80
2018-12-24T07:17:28.042Z,95.80
2018-12-24T07:19:58.567Z,96.00
2018-12-24T07:22:29.185Z,95.80
2018-12-24T07:24:59.882Z,95.80
2018-12-24T07:27:30.323Z,95.70
2018-12-24T07:30:01.015Z,96.10
2018-12-24T07:32:31.509Z,95.70
2018-12-24T07:35:01.996Z,95.70
2018-12-24T07:37:32.451Z,96.00
2018-12-24T07:40:03.083Z,95.50
2018-12-24T07:42:33.506Z,95.70
2018-12-24T07:45:04.112Z,95.70
2018-12-24T07:47:36.478Z,95.70
2018-12-24T07:50:08.483Z,95.60
2018-12-24T07:52:40.157Z,95.30
2018-12-24T07:55:10.674Z,94.60
2018-12-24T07:57:41.431Z,94.30
2018-12-24T08:00:11.953Z,93.90
2018-12-24T08:02:43.024Z,93.90
2018-12-24T08:05:16.681Z,93.90
2018-12-24T08:07:47.728Z,93.50
2018-12-24T08:10:19.311Z,93.50
2018-12-24T08:12:50.459Z,93.50
2018-12-24T08:15:22.184Z,93.40
2018-12-24T08:17:54.850Z,93.70
2018-12-24T08:20:30.555Z,93.80
2018-12-24T08:23:01.033Z,93.60
2018-12-24T08:25:31.874Z,93.50
2018-12-24T08:28:04.670Z,93.60
2018-12-24T08:30:35.538Z,93.20
2018-12-24T08:33:06.868Z,92.70
2018-12-24T08:35:37.984Z,92.70
2018-12-24T08:38:08.482Z,92.80
2018-12-24T08:40:39.072Z,92.90
2018-12-24T08:43:11.181Z,93.00
2018-12-24T08:45:41.743Z,93.10
2018-12-24T08:48:12.386Z,93.20
2018-12-24T08:50:42.848Z,93.60
2018-12-24T08:53:13.500Z,93.80
2018-12-24T08:55:43.989Z,94.10
2018-12-24T08:58:16.256Z,94.10
2018-12-24T09:00:46.847Z,94.00
2018-12-24T09:03:17.323Z,93.70
2018-12-24T09:05:47.797Z,93.40
2018-12-24T09:08:18.296Z,93.40
2018-12-24T09:10:48.737Z,92.80
2018-12-24T09:13:19.438Z,92.50
2018-12-24T09:15:50.081Z,92.40
2018-12-24T09:18:20.619Z,92.20
2018-12-24T09:20:52.773Z,91.60
2018-12-24T09:23:23.228Z,91.80
2018-12-24T09:25:53.938Z,91.80
2018-12-24T09:28:24.477Z,92.00
2018-12-24T09:30:56.827Z,91.80
2018-12-24T09:33:27.498Z,91.10
2018-12-24T09:35:58.084Z,90.50
2018-12-24T09:38:28.512Z,89.80
2018-12-24T09:40:59.024Z,90.40
2018-12-24T09:43:29.638Z,90.00
2018-12-24T09:46:00.138Z,90.00
2018-12-24T09:48:30.728Z,90.20
2018-12-24T09:51:01.212Z,89.50
2018-12-24T09:53:32.459Z,90.10
2018-12-24T09:56:02.908Z,90.00
2018-12-24T09:58:35.305Z,89.80
2018-12-24T10:01:06.403Z,89.80
2018-12-24T10:03:42.143Z,90.00
2018-12-24T10:06:16.187Z,90.20
2018-12-24T10:08:46.781Z,90.40
2018-12-24T10:11:18.262Z,90.70
2018-12-24T10:13:49.962Z,90.80
2018-12-24T10:16:20.484Z,90.90
2018-12-24T10:18:50.893Z,90.70
2018-12-24T10:21:21.525Z,90.90
2018-12-24T10:23:53.221Z,91.00
2018-12-24T10:26:23.722Z,91.20
2018-12-24T10:28:54.283Z,91.00
2018-12-24T10:31:24.722Z,91.00
2018-12-24T10:33:55.340Z,90.60
2018-12-24T10:36:25.784Z,90.70
2018-12-24T10:38:56.310Z,90.10
2018-12-24T10:41:29.711Z,90.30
2018-12-24T10:44:00.484Z,90.10
2018-12-24T10:46:31.181Z,90.10
2018-12-24T10:49:01.950Z,89.60
2018-12-24T10:51:32.588Z,89.40
2018-12-24T10:54:03.295Z,90.20
2018-12-24T10:56:33.713Z,89.50
2018-12-24T10:59:05.177Z,89.10
2018-12-24T11:01:35.894Z,90.00
2018-12-24T11:04:06.602Z,90.10
2018-12-24T11:06:38.690Z,89.90
2018-12-24T11:09:09.122Z,90.20
2018-12-24T11:11:40.425Z,89.80
2018-12-24T11:14:11.027Z,89.00
2018-12-24T11:16:41.618Z,88.50
2018-12-24T11:19:12.102Z,88.20
2018-12-24T11:21:42.827Z,87.00
2018-12-24T11:24:13.338Z,86.80
2018-12-24T11:26:43.867Z,87.00
2018-12-24T11:29:16.259Z,85.60
2018-12-24T11:31:47.001Z,86.00
2018-12-24T11:34:19.666Z,85.30
2018-12-24T11:36:50.202Z,84.90
2018-12-24T11:39:20.651Z,84.30
2018-12-24T11:41:51.081Z,84.20
2018-12-24T11:44:23.661Z,83.10
2018-12-24T11:46:54.164Z,83.40
2018-12-24T11:49:24.676Z,84.30
2018-12-24T11:51:55.237Z,83.80
2018-12-24T11:54:28.221Z,84.60
2018-12-24T11:56:58.935Z,84.40
2018-12-24T11:59:29.484Z,83.20
2018-12-24T12:01:59.983Z,83.70
2018-12-24T12:09:10.291Z,84.20
2018-12-24T12:12:08.145Z,85.20
2018-12-24T12:14:56.078Z,85.70
2018-12-24T12:17:26.487Z,86.40
2018-12-24T12:19:56.930Z,86.70
2018-12-24T12:22:27.581Z,87.30
2018-12-24T12:24:58.050Z,87.60
2018-12-24T12:27:28.620Z,87.90
2018-12-24T12:33:58.340Z,88.60
2018-12-24T12:43:21.554Z,89.50
2018-12-24T12:45:57.905Z,85.60
2018-12-24T12:48:42.402Z,85.30
2018-12-24T12:51:12.962Z,84.80
2018-12-24T12:53:43.700Z,83.70
2018-12-24T12:56:14.231Z,83.30
2018-12-24T12:59:42.084Z,82.90
2018-12-24T13:02:12.068Z,82.90
2018-12-24T13:04:42.262Z,82.40
2018-12-24T13:07:12.222Z,81.80
2018-12-24T13:09:42.285Z,81.90
2018-12-24T13:12:12.176Z,81.40
2018-12-24T13:14:42.389Z,81.40
2018-12-24T13:17:12.832Z,81.50
2018-12-24T13:19:43.512Z,81.50
2018-12-24T13:22:17.339Z,81.80
2018-12-24T13:24:48.962Z,81.30
2018-12-24T13:27:19.649Z,81.50
2018-12-24T13:29:50.147Z,81.50
2018-12-24T13:32:20.151Z,81.10
2018-12-24T13:34:50.250Z,81.00
2018-12-24T13:37:35.353Z,80.80
2018-12-24T13:40:09.745Z,80.60
2018-12-24T13:42:40.454Z,80.00
2018-12-24T13:45:11.500Z,78.60
2018-12-24T13:47:42.063Z,78.50
2018-12-24T13:50:12.424Z,78.50
2018-12-24T13:52:42.577Z,78.20
2018-12-24T13:55:12.970Z,78.00
2018-12-24T13:57:45.725Z,76.90
2018-12-24T14:00:15.996Z,77.10
2018-12-24T14:02:48.124Z,77.20
2018-12-24T14:05:18.180Z,76.00
2018-12-24T14:07:48.289Z,76.20
2018-12-24T14:10:18.329Z,76.20
2018-12-24T14:12:48.358Z,76.20
2018-12-24T14:15:18.663Z,77.00
2018-12-24T14:17:48.690Z,77.30
2018-12-24T14:20:18.786Z,77.50
2018-12-24T14:22:48.921Z,77.90
2018-12-24T14:25:19.041Z,78.10
2018-12-24T14:27:58.202Z,78.70
2018-12-24T14:30:28.080Z,79.10
2018-12-24T14:32:58.143Z,81.10
2018-12-24T14:35:28.122Z,81.20
2018-12-24T14:37:58.146Z,81.90
2018-12-24T14:40:28.214Z,81.10
2018-12-24T14:42:58.142Z,81.40
2018-12-24T14:45:28.089Z,81.40
2018-12-24T14:47:58.054Z,81.30
2018-12-24T14:50:28.080Z,81.20
2018-12-24T14:52:58.121Z,81.70
2018-12-24T14:55:28.201Z,81.10
2018-12-24T14:57:58.166Z,80.00
2018-12-24T15:00:30.256Z,80.50
2018-12-24T15:03:00.310Z,80.80
2018-12-24T15:05:30.334Z,80.30
2018-12-24T15:08:00.434Z,80.60
2018-12-24T15:10:30.502Z,80.80
2018-12-24T15:13:00.462Z,80.70
2018-12-24T15:15:30.566Z,81.50
2018-12-24T15:18:00.590Z,80.80
2018-12-24T15:20:30.630Z,80.70
2018-12-24T15:23:00.723Z,80.70
2018-12-24T15:25:32.280Z,80.90
2018-12-24T15:28:02.349Z,81.20
2018-12-24T15:30:32.262Z,81.30
2018-12-24T15:33:04.335Z,81.60
2018-12-24T15:35:34.335Z,82.30
2018-12-24T15:38:04.318Z,82.30
2018-12-24T15:40:34.429Z,82.90
2018-12-24T15:43:04.570Z,83.20
2018-12-24T15:45:34.618Z,83.80
2018-12-24T15:48:04.596Z,84.70
2018-12-24T15:50:35.017Z,84.60
2018-12-24T15:53:05.064Z,84.70
2018-12-24T15:55:35.005Z,84.90
2018-12-24T15:58:05.393Z,85.50
2018-12-24T16:00:35.311Z,85.80
2018-12-24T16:03:05.270Z,85.90
2018-12-24T16:05:35.316Z,86.60
2018-12-24T16:08:05.442Z,87.10
2018-12-24T16:10:35.567Z,88.20
2018-12-24T16:13:07.779Z,89.10
2018-12-24T16:15:37.674Z,90.20
2018-12-24T16:18:07.774Z,90.50
2018-12-24T16:20:37.759Z,91.10
2018-12-24T16:23:07.742Z,91.10
2018-12-24T16:25:37.915Z,91.50
2018-12-24T16:28:09.948Z,91.60
2018-12-24T16:30:40.010Z,91.50
2018-12-24T16:33:10.054Z,91.60
2018-12-24T16:35:40.057Z,91.50
2018-12-24T16:38:10.090Z,91.70
2018-12-24T16:40:40.167Z,91.90
2018-12-24T16:43:10.296Z,92.10
2018-12-24T16:45:40.332Z,92.40
2018-12-24T16:48:10.580Z,93.10
2018-12-24T16:50:40.699Z,93.20
2018-12-24T16:53:10.834Z,93.20
2018-12-24T16:55:40.837Z,93.40
2018-12-24T16:58:12.775Z,93.50
2018-12-24T17:00:42.732Z,93.80
2018-12-24T17:03:12.749Z,94.00
2018-12-24T17:05:42.881Z,94.00
2018-12-24T17:08:13.095Z,93.90
2018-12-24T17:10:43.594Z,93.80
2018-12-24T17:13:13.634Z,93.70
2018-12-24T17:15:43.673Z,93.40
2018-12-24T17:18:13.782Z,93.30
2018-12-24T17:20:43.886Z,93.20
2018-12-24T17:23:13.844Z,92.90
2018-12-24T17:25:45.136Z,92.90
2018-12-24T17:28:15.116Z,92.80
2018-12-24T17:30:45.216Z,92.70
2018-12-24T17:33:15.302Z,92.70
2018-12-24T17:35:45.380Z,92.50
2018-12-24T17:38:15.545Z,92.40
2018-12-24T17:40:45.594Z,92.30
2018-12-24T17:43:15.719Z,92.00
2018-12-24T17:45:45.694Z,91.90
2018-12-24T17:48:16.980Z,91.80
2018-12-24T17:50:47.532Z,91.70
2018-12-24T17:53:17.534Z,91.70
2018-12-24T17:55:47.644Z,91.70
2018-12-24T17:58:17.700Z,92.10
2018-12-24T18:00:50.474Z,91.70
2018-12-24T18:03:20.464Z,91.80
2018-12-24T18:05:50.634Z,91.80
2018-12-24T18:08:20.835Z,91.70
2018-12-24T18:10:50.995Z,91.60
2018-12-24T18:13:20.935Z,91.40
2018-12-24T18:15:51.080Z,91.30
2018-12-24T18:18:21.143Z,91.30
2018-12-24T18:20:51.395Z,91.30
2018-12-24T18:23:21.713Z,91.10
2018-12-24T18:25:52.157Z,91.10
2018-12-24T18:28:22.475Z,91.10
2018-12-24T18:30:52.719Z,90.90
2018-12-24T18:33:22.996Z,90.80
2018-12-24T18:35:53.544Z,90.70
2018-12-24T18:38:23.915Z,90.70
2018-12-24T18:40:54.120Z,90.90
2018-12-24T18:43:24.666Z,91.00
2018-12-24T18:45:55.069Z,90.90
2018-12-24T18:48:25.951Z,90.90
2018-12-24T18:50:56.268Z,91.00
2018-12-24T18:53:26.756Z,91.20
2018-12-24T18:55:57.268Z,91.40
2018-12-24T18:58:27.570Z,91.20
2018-12-24T19:00:58.109Z,91.20
2018-12-24T19:03:28.192Z,91.40
2018-12-24T19:05:58.197Z,91.60
2018-12-24T19:08:28.168Z,91.70
2018-12-24T19:10:58.346Z,91.50
2018-12-24T19:13:28.489Z,91.60
2018-12-24T19:15:58.636Z,91.80
2018-12-24T19:18:28.721Z,91.90
2018-12-24T19:20:58.762Z,92.00
2018-12-24T19:23:28.841Z,92.30
2018-12-24T19:25:58.849Z,91.90
2018-12-24T19:28:29.172Z,91.90
2018-12-24T19:31:00.405Z,91.60
2018-12-24T19:33:30.532Z,91.50
2018-12-24T19:36:00.606Z,91.50
2018-12-24T19:38:30.655Z,91.40
2018-12-24T19:41:01.064Z,90.90
2018-12-24T19:43:31.130Z,91.10
2018-12-24T19:46:01.271Z,91.20
2018-12-24T19:48:31.289Z,91.30
2018-12-24T19:51:01.315Z,91.30
2018-12-24T19:53:31.410Z,91.20
2018-12-24T19:56:01.497Z,91.30
2018-12-24T19:58:31.695Z,91.30
2018-12-24T20:01:01.848Z,91.10
2018-12-24T20:03:33.058Z,90.90
2018-12-24T20:06:42.244Z,91.00
2018-12-24T20:09:23.031Z,90.90
2018-12-24T20:11:55.237Z,91.40
2018-12-24T20:14:33.135Z,91.00
2018-12-24T20:17:06.117Z,91.10
2018-12-24T20:20:30.318Z,91.00
2018-12-24T20:23:25.423Z,91.10
2018-12-24T20:29:17.120Z,91.20
2018-12-24T20:32:07.989Z,91.30
2018-12-24T20:34:43.224Z,91.20
2018-12-24T20:37:41.322Z,91.20
2018-12-24T20:44:26.806Z,91.40
2018-12-24T20:46:59.766Z,91.40
2018-12-24T20:55:32.358Z,90.90
2018-12-24T20:58:14.071Z,90.70
2018-12-24T21:01:15.774Z,90.50
2018-12-24T21:04:10.161Z,90.60
2018-12-24T21:06:49.502Z,90.40
2018-12-24T21:09:30.897Z,90.20
2018-12-24T21:12:11.781Z,90.10
2018-12-24T21:14:42.894Z,90.00
2018-12-24T21:18:41.486Z,90.10
2018-12-24T21:21:11.208Z,90.10
2018-12-24T21:23:54.203Z,89.30
2018-12-24T21:26:26.755Z,89.30
2018-12-24T21:29:08.752Z,89.30
2018-12-24T21:31:39.181Z,89.10
2018-12-24T21:34:09.394Z,89.00
2018-12-24T21:36:42.886Z,88.60
2018-12-24T21:39:19.444Z,88.40
2018-12-24T21:41:51.769Z,88.10
2018-12-24T21:44:34.178Z,87.50
2018-12-24T21:47:24.906Z,87.70
2018-12-24T21:49:58.252Z,87.90
2018-12-24T21:52:30.376Z,87.60
2018-12-24T21:55:02.298Z,87.10
2018-12-24T21:57:33.851Z,87.10
2018-12-24T22:00:05.032Z,86.80
2018-12-24T22:02:36.366Z,86.80
2018-12-24T22:05:07.712Z,88.60
2018-12-24T22:07:38.370Z,89.10
2018-12-24T22:10:09.164Z,88.40
2018-12-24T22:12:39.263Z,88.80
2018-12-24T22:15:09.254Z,88.70
2018-12-24T22:17:42.877Z,88.70
2018-12-24T22:20:12.919Z,88.60
2018-12-24T22:22:44.069Z,88.70
2018-12-24T22:25:14.723Z,88.60
2018-12-24T22:27:45.537Z,88.70
2018-12-24T22:30:16.245Z,88.80
2018-12-24T22:32:47.093Z,89.00
2018-12-24T22:35:19.938Z,88.60
2018-12-24T22:37:51.075Z,89.60
2018-12-24T22:40:21.035Z,88.90
2018-12-24T22:42:51.241Z,88.60
2018-12-24T22:45:21.690Z,88.50
2018-12-24T22:47:51.995Z,88.40
2018-12-24T22:50:23.003Z,87.90
2018-12-24T22:52:54.191Z,88.40
2018-12-24T22:55:24.258Z,87.40
2018-12-24T22:57:57.281Z,87.00
2018-12-24T23:00:37.554Z,87.20
2018-12-24T23:03:08.506Z,86.90
2018-12-24T23:05:46.192Z,86.80
2018-12-24T23:08:20.429Z,86.60
2018-12-24T23:10:51.088Z,86.40
2018-12-24T23:13:21.738Z,85.40
2018-12-24T23:15:52.314Z,85.50
2018-12-24T23:18:22.419Z,85.50
2018-12-24T23:20:53.835Z,85.50
2018-12-24T23:23:24.411Z,84.60
2018-12-24T23:25:54.386Z,84.60
2018-12-24T23:28:24.506Z,84.20
2018-12-24T23:30:54.509Z,84.10
2018-12-24T23:33:24.686Z,84.00
2018-12-24T23:35:54.716Z,83.80
2018-12-24T23:38:24.768Z,83.50
2018-12-24T23:40:54.921Z,83.10
2018-12-24T23:43:25.159Z,83.20
2018-12-24T23:45:56.421Z,83.00
2018-12-24T23:48:26.365Z,83.90
2018-12-24T23:50:56.662Z,83.30
2018-12-24T23:53:26.617Z,82.90
2018-12-24T23:55:57.028Z,82.50
2018-12-24T23:58:27.216Z,83.00
